Pagrindinis puslapis
METAR-TAF:

METAR-TAF

Oro uostai :

St. George, Aliaska, Jungtinės Amerikos Valstijos

platuma: 56-34-43N, ilguma: 169-39-41W, Aukštis: 38 m

Dabartinis oras

Ataskaita buvo paskelbta 33 minutes, ne 22:53 UTC
Vėjas 7 kt iš Vakarų
Temperatūra 8°C
Drėgmė 93%
Slėgis 1020 hPa
Matomumas: 16.1 km
Mažai debesys ne aukštis 1200 ft
Apsiniaukę ne aukštis 3000 ft

METAR: PAPB 052253Z AUTO 26007KT 10SM FEW012 OVC030 08/07 A3012 RMK AO2 SLP187 T00830067 TSNO $

Laikas: 15:26 (23:26 UTC)


TAF: trūkstamas

Orai ataskaitas ir orų prognozės (METAR, TAF).

turimą stotys yra geltonos ir raudonos taškus žemėlapyje.

Perkelti pele per norėdami pamatyti stoties vardą.

Tada spustelėkite, norėdami matyti oro stebėjimo ir prognozės.

Norėdami pakeisti žemėlapį: spustelėkite ant žalios mygtukų su juodo kryžiaus žemyn,; žalią mygtuką su brūkšneliu, jei norite nutolinti; arba žalių rodyklių gretimoms žemėlapius.


METAR-TAF: